createdAt,value
2019-05-13T00:01:23.873Z,56.29
2019-05-13T00:03:54.161Z,56.58
2019-05-13T00:06:23.903Z,56.43
2019-05-13T00:08:54.359Z,56.63
2019-05-13T00:11:24.043Z,56.49
2019-05-13T00:13:53.836Z,56.96
2019-05-13T00:16:23.544Z,56.97
2019-05-13T00:18:53.451Z,57.09
2019-05-13T00:21:23.263Z,57.25
2019-05-13T00:23:53.746Z,57.74
2019-05-13T00:26:24.474Z,57.85
2019-05-13T00:28:53.933Z,58.14
2019-05-13T00:31:24.119Z,58.13
2019-05-13T00:33:53.597Z,58.12
2019-05-13T00:36:24.326Z,58.00
2019-05-13T00:38:53.750Z,58.35
2019-05-13T00:41:24.468Z,58.40
2019-05-13T00:43:53.903Z,58.59
2019-05-13T00:46:23.678Z,58.55
2019-05-13T00:48:54.051Z,58.72
2019-05-13T00:51:24.405Z,59.42
2019-05-13T00:53:53.898Z,59.73
2019-05-13T00:56:23.762Z,59.70
2019-05-13T00:58:54.109Z,59.23
2019-05-13T01:01:24.654Z,59.85
2019-05-13T01:03:53.908Z,59.67
2019-05-13T01:06:24.648Z,59.70
2019-05-13T01:08:54.156Z,60.24
2019-05-13T01:11:25.884Z,60.20
2019-05-13T01:13:55.309Z,60.66
2019-05-13T01:16:24.615Z,60.74
2019-05-13T01:18:53.940Z,60.11
2019-05-13T01:21:23.859Z,60.10
2019-05-13T01:23:54.367Z,60.29
2019-05-13T01:26:23.774Z,60.45
2019-05-13T01:28:53.551Z,60.37
2019-05-13T01:31:23.849Z,60.63
2019-05-13T01:33:53.793Z,60.98
2019-05-13T01:36:23.528Z,60.86
2019-05-13T01:38:54.108Z,60.94
2019-05-13T01:41:24.510Z,61.00
2019-05-13T01:43:54.411Z,61.08
2019-05-13T01:46:24.184Z,61.15
2019-05-13T01:48:54.373Z,61.25
2019-05-13T01:51:24.773Z,61.35
2019-05-13T01:53:54.051Z,61.68
2019-05-13T01:56:23.647Z,61.95
2019-05-13T01:58:54.118Z,62.26
2019-05-13T02:01:24.189Z,62.38
2019-05-13T02:03:54.479Z,62.16
2019-05-13T02:06:25.222Z,62.47
2019-05-13T02:08:54.726Z,62.87
2019-05-13T02:11:24.019Z,63.12
2019-05-13T02:13:54.098Z,63.51
2019-05-13T02:16:24.411Z,63.52
2019-05-13T02:18:53.785Z,63.97
2019-05-13T02:21:24.198Z,63.52
2019-05-13T02:23:53.780Z,63.85
2019-05-13T02:26:24.052Z,64.63
2019-05-13T02:28:54.094Z,65.29
2019-05-13T02:31:39.186Z,65.37
2019-05-13T02:34:02.493Z,65.81
2019-05-13T02:36:32.926Z,65.73
2019-05-13T02:39:04.424Z,65.88
2019-05-13T02:41:34.277Z,65.81
2019-05-13T02:44:04.104Z,65.60
2019-05-13T02:46:34.204Z,65.40
2019-05-13T02:49:05.002Z,65.11
2019-05-13T02:51:34.291Z,65.56
2019-05-13T02:54:03.896Z,65.59
2019-05-13T02:56:33.331Z,65.78
2019-05-13T02:59:04.050Z,66.13
2019-05-13T03:01:34.300Z,66.05
2019-05-13T03:04:03.645Z,66.43
2019-05-13T03:06:34.394Z,67.00
2019-05-13T03:09:07.071Z,67.37
2019-05-13T03:11:36.376Z,67.28
2019-05-13T03:14:06.577Z,67.22
2019-05-13T03:16:46.207Z,67.64
2019-05-13T03:19:15.475Z,67.87
2019-05-13T03:21:44.831Z,68.58
2019-05-13T03:24:14.089Z,69.36
2019-05-13T03:26:43.376Z,69.20
2019-05-13T03:29:13.340Z,69.10
2019-05-13T03:31:46.413Z,69.31
2019-05-13T03:34:16.058Z,69.38
2019-05-13T03:36:46.532Z,69.81
2019-05-13T03:39:16.838Z,70.09
2019-05-13T03:41:52.582Z,69.96
2019-05-13T03:44:23.551Z,70.23
2019-05-13T03:46:56.328Z,70.25
2019-05-13T03:49:32.353Z,70.96
2019-05-13T03:52:03.009Z,71.20
2019-05-13T03:54:32.941Z,71.82
2019-05-13T03:57:03.439Z,71.79
2019-05-13T03:59:33.761Z,71.95
2019-05-13T04:02:03.191Z,70.95
2019-05-13T04:04:32.800Z,71.49
2019-05-13T04:07:03.002Z,71.55
2019-05-13T04:09:36.555Z,71.16
2019-05-13T04:12:03.832Z,71.09
2019-05-13T04:14:33.813Z,70.96
2019-05-13T04:17:04.576Z,70.73
2019-05-13T04:19:34.343Z,71.11
2019-05-13T04:22:04.207Z,70.53
2019-05-13T04:24:33.950Z,70.69
2019-05-13T04:27:04.681Z,69.51
2019-05-13T04:29:33.976Z,68.52
2019-05-13T04:32:03.360Z,68.61
2019-05-13T04:34:33.896Z,67.02
2019-05-13T04:37:03.637Z,67.55
2019-05-13T04:39:46.012Z,67.86
2019-05-13T04:42:04.524Z,68.17
2019-05-13T04:44:33.747Z,67.80
2019-05-13T04:47:04.012Z,68.04
2019-05-13T04:49:33.591Z,67.68
2019-05-13T04:52:03.767Z,67.57
2019-05-13T04:54:33.980Z,67.59
2019-05-13T04:57:03.604Z,66.37
2019-05-13T04:59:34.802Z,66.07
2019-05-13T05:02:48.969Z,65.51
2019-05-13T05:05:35.407Z,65.46
2019-05-13T05:08:36.853Z,65.26
2019-05-13T05:11:24.692Z,64.85
2019-05-13T05:14:32.613Z,64.72
2019-05-13T05:17:42.994Z,63.00
2019-05-13T05:20:23.431Z,62.63
2019-05-13T05:23:21.681Z,63.31
2019-05-13T05:26:16.838Z,63.34
2019-05-13T05:29:25.928Z,62.70
2019-05-13T05:32:39.189Z,62.89
2019-05-13T05:35:42.597Z,63.21
2019-05-13T05:38:26.256Z,62.88
2019-05-13T05:41:01.571Z,62.49
2019-05-13T05:43:34.302Z,61.83
2019-05-13T05:46:04.551Z,61.61
2019-05-13T05:48:36.006Z,61.30
2019-05-13T05:51:06.260Z,61.86
2019-05-13T05:53:38.986Z,60.91
2019-05-13T05:56:11.424Z,60.04
2019-05-13T05:59:02.615Z,59.59
2019-05-13T06:01:32.765Z,58.89
2019-05-13T06:04:01.701Z,57.53
2019-05-13T06:06:32.945Z,57.13
2019-05-13T06:09:02.540Z,56.02
2019-05-13T06:11:33.552Z,56.37
2019-05-13T06:14:03.529Z,56.14
2019-05-13T06:16:33.023Z,55.39
2019-05-13T06:19:02.304Z,54.66
2019-05-13T06:21:32.235Z,54.67
2019-05-13T06:24:02.714Z,54.04
2019-05-13T06:26:33.713Z,53.27
2019-05-13T06:29:02.994Z,52.97
2019-05-13T06:31:32.454Z,51.53
2019-05-13T06:34:02.180Z,51.16
2019-05-13T06:36:31.892Z,50.43
2019-05-13T06:39:02.736Z,49.77
2019-05-13T06:41:33.827Z,50.03
2019-05-13T06:44:03.211Z,50.00
2019-05-13T06:46:32.541Z,48.97
2019-05-13T06:49:02.895Z,48.21
2019-05-13T06:51:32.369Z,48.17
2019-05-13T06:54:02.312Z,47.19
2019-05-13T06:56:32.369Z,46.45
2019-05-13T06:59:01.726Z,45.96
2019-05-13T07:01:32.274Z,44.56
2019-05-13T07:04:02.555Z,42.73
2019-05-13T07:06:32.438Z,41.55
2019-05-13T07:09:01.905Z,38.37
2019-05-13T07:11:31.546Z,34.50
2019-05-13T07:14:02.434Z,32.85
2019-05-13T07:16:31.927Z,30.80
2019-05-13T07:19:02.629Z,31.53
2019-05-13T07:21:32.435Z,30.53
2019-05-13T07:24:02.406Z,32.09
2019-05-13T07:26:31.825Z,31.68
2019-05-13T07:29:03.677Z,30.81
2019-05-13T07:31:32.503Z,31.45
2019-05-13T07:34:02.405Z,29.86
2019-05-13T07:36:31.873Z,26.04
2019-05-13T07:39:02.283Z,28.63
2019-05-13T07:41:38.951Z,25.47
2019-05-13T07:44:02.744Z,25.88
2019-05-13T07:46:32.413Z,25.23
2019-05-13T07:49:02.258Z,26.91
2019-05-13T07:51:32.082Z,27.15
2019-05-13T07:54:02.384Z,26.25
2019-05-13T07:56:32.568Z,27.89
2019-05-13T07:59:02.079Z,25.99
2019-05-13T08:01:34.064Z,25.48
2019-05-13T08:04:03.419Z,27.55
2019-05-13T08:06:32.733Z,27.25
2019-05-13T08:09:02.093Z,28.12
2019-05-13T08:11:35.377Z,24.70
2019-05-13T08:14:02.346Z,25.39
2019-05-13T08:16:32.379Z,25.69
2019-05-13T08:19:01.977Z,25.04
2019-05-13T08:21:32.255Z,25.35
2019-05-13T08:24:02.713Z,25.34
2019-05-13T08:26:32.531Z,24.81
2019-05-13T08:29:05.935Z,26.32
2019-05-13T08:31:34.402Z,26.50
2019-05-13T08:34:03.902Z,25.95
2019-05-13T08:36:33.162Z,26.19
2019-05-13T08:39:02.869Z,24.45
2019-05-13T08:41:32.451Z,23.89
2019-05-13T08:44:01.956Z,24.04
2019-05-13T08:46:32.520Z,24.66
2019-05-13T08:49:03.799Z,24.58
2019-05-13T08:51:34.778Z,26.73
2019-05-13T08:54:03.813Z,24.75
2019-05-13T08:56:33.267Z,23.85
2019-05-13T08:59:02.612Z,21.78
2019-05-13T09:01:32.086Z,22.30
2019-05-13T09:04:02.590Z,23.56
2019-05-13T09:06:32.055Z,22.16
2019-05-13T09:09:02.409Z,23.23
2019-05-13T09:11:31.926Z,22.66
2019-05-13T09:14:02.241Z,23.82
2019-05-13T09:16:32.101Z,23.78
2019-05-13T09:19:03.754Z,26.02
2019-05-13T09:21:32.546Z,24.82
2019-05-13T09:24:02.335Z,24.90
2019-05-13T09:26:31.840Z,21.45
2019-05-13T09:29:02.360Z,22.06
2019-05-13T09:31:32.493Z,23.49
2019-05-13T09:34:01.973Z,23.55
2019-05-13T09:36:32.397Z,22.73
2019-05-13T09:39:02.168Z,24.45
2019-05-13T09:41:33.094Z,23.34
2019-05-13T09:44:02.601Z,23.20
2019-05-13T09:46:32.989Z,21.79
2019-05-13T09:49:12.798Z,20.99
2019-05-13T09:51:33.254Z,21.40
2019-05-13T09:54:02.582Z,19.90
2019-05-13T09:56:32.111Z,20.06
2019-05-13T09:59:01.923Z,22.44
2019-05-13T10:01:32.112Z,23.37
2019-05-13T10:04:04.503Z,23.46
2019-05-13T10:06:33.728Z,23.44
2019-05-13T10:09:03.088Z,23.27
2019-05-13T10:11:33.600Z,24.08
2019-05-13T10:14:02.901Z,25.43
2019-05-13T10:16:32.183Z,26.45
2019-05-13T10:19:02.556Z,25.56
2019-05-13T10:21:32.829Z,25.62
2019-05-13T10:24:02.323Z,25.55
2019-05-13T10:26:32.366Z,25.39
2019-05-13T10:29:02.085Z,24.50
2019-05-13T10:31:31.696Z,24.06
2019-05-13T10:34:02.240Z,23.52
2019-05-13T10:36:32.273Z,24.57
2019-05-13T10:39:01.602Z,24.87
2019-05-13T10:41:33.174Z,24.65
2019-05-13T10:44:03.816Z,23.81
2019-05-13T10:46:33.118Z,23.95
2019-05-13T10:49:02.391Z,24.28
2019-05-13T10:51:32.683Z,24.47
2019-05-13T10:54:02.117Z,24.27
2019-05-13T10:56:32.830Z,24.25
2019-05-13T10:59:03.295Z,24.44
2019-05-13T11:01:32.907Z,24.74
2019-05-13T11:04:02.782Z,25.26
2019-05-13T11:06:32.630Z,23.20
2019-05-13T11:09:02.736Z,22.73
2019-05-13T11:11:33.206Z,23.02
2019-05-13T11:14:10.649Z,25.67
2019-05-13T11:16:33.888Z,25.77
2019-05-13T11:19:03.189Z,24.51
2019-05-13T11:21:32.446Z,24.87
2019-05-13T11:24:03.277Z,23.82
2019-05-13T11:26:36.140Z,23.53
2019-05-13T11:29:03.917Z,23.21
2019-05-13T11:31:33.184Z,24.79
2019-05-13T11:34:02.518Z,25.21
2019-05-13T11:36:33.317Z,24.26
2019-05-13T11:39:04.079Z,23.48
2019-05-13T11:41:33.352Z,24.99
2019-05-13T11:44:12.817Z,24.24
2019-05-13T11:46:33.639Z,23.86
2019-05-13T11:49:02.992Z,22.27
2019-05-13T11:51:32.470Z,21.74
2019-05-13T11:54:03.578Z,21.16
2019-05-13T11:56:33.700Z,21.72
2019-05-13T11:59:04.335Z,21.20
2019-05-13T12:01:33.949Z,22.53
2019-05-13T12:04:03.235Z,22.49
2019-05-13T12:06:33.813Z,23.60
2019-05-13T12:09:06.258Z,23.57
2019-05-13T12:11:35.635Z,24.38
2019-05-13T12:14:04.954Z,25.17
2019-05-13T12:16:35.019Z,24.58
2019-05-13T12:19:04.629Z,24.99
2019-05-13T12:21:40.674Z,25.53
2019-05-13T12:26:36.158Z,26.97
2019-05-13T12:29:05.459Z,26.65
2019-05-13T12:31:34.739Z,26.81
2019-05-13T12:34:04.062Z,26.72
2019-05-13T12:36:33.804Z,27.12
2019-05-13T12:39:04.869Z,27.78
2019-05-13T12:41:34.149Z,26.02
2019-05-13T12:44:03.679Z,26.86
2019-05-13T12:46:32.947Z,26.58
2019-05-13T12:49:03.938Z,25.99
2019-05-13T12:51:33.452Z,26.22
2019-05-13T12:54:03.738Z,25.91
2019-05-13T12:56:33.558Z,25.85
2019-05-13T12:59:03.296Z,26.18
2019-05-13T13:01:32.683Z,26.18
2019-05-13T13:04:02.341Z,26.28
2019-05-13T13:06:40.322Z,26.53
2019-05-13T13:09:03.168Z,26.93
2019-05-13T13:11:32.624Z,26.69
2019-05-13T13:14:05.716Z,27.33
2019-05-13T13:19:03.989Z,25.59
2019-05-13T13:21:36.904Z,26.22
2019-05-13T13:24:04.902Z,25.90
2019-05-13T13:26:34.213Z,26.01
2019-05-13T13:29:04.604Z,26.19
2019-05-13T13:31:33.944Z,26.18
2019-05-13T13:34:12.169Z,26.60
2019-05-13T13:36:34.422Z,26.13
2019-05-13T13:39:05.587Z,26.26
2019-05-13T13:41:35.982Z,25.97
2019-05-13T13:44:05.994Z,26.68
2019-05-13T13:46:43.129Z,27.31
2019-05-13T13:49:07.452Z,26.91
2019-05-13T13:51:38.226Z,27.40
2019-05-13T13:54:07.500Z,27.22
2019-05-13T13:56:36.847Z,26.52
2019-05-13T13:59:06.131Z,26.70
2019-05-13T14:01:35.430Z,26.50
2019-05-13T14:04:04.691Z,27.31
2019-05-13T14:07:02.911Z,26.36
2019-05-13T14:07:09.314Z,26.86
2019-05-13T14:09:07.754Z,26.77
2019-05-13T14:11:37.055Z,26.92
2019-05-13T14:14:06.331Z,27.85
2019-05-13T14:16:35.637Z,27.70
2019-05-13T14:19:05.314Z,27.80
2019-05-13T14:21:34.614Z,27.08
2019-05-13T14:24:03.946Z,27.28
2019-05-13T14:26:33.342Z,27.15
2019-05-13T14:29:02.971Z,26.52
2019-05-13T14:31:34.667Z,26.46
2019-05-13T14:34:04.048Z,26.64
2019-05-13T14:36:33.320Z,26.24
2019-05-13T14:39:02.933Z,26.33
2019-05-13T14:41:32.283Z,26.30
2019-05-13T14:44:03.774Z,26.32
2019-05-13T14:46:46.379Z,26.57
2019-05-13T14:49:03.642Z,26.28
2019-05-13T14:51:32.997Z,26.15
2019-05-13T14:54:02.792Z,26.34
2019-05-13T14:56:32.486Z,26.64
2019-05-13T14:59:02.751Z,27.18
2019-05-13T15:01:33.421Z,27.10
2019-05-13T15:04:03.019Z,26.62
2019-05-13T15:06:32.898Z,26.73
2019-05-13T15:09:02.198Z,27.16
2019-05-13T15:11:33.170Z,27.10
2019-05-13T15:14:03.043Z,27.11
2019-05-13T15:16:32.291Z,27.09
2019-05-13T15:19:01.937Z,26.76
2019-05-13T15:21:32.186Z,26.94
2019-05-13T15:24:02.248Z,27.67
2019-05-13T15:26:31.750Z,27.67
2019-05-13T15:29:04.885Z,27.51
2019-05-13T15:31:36.252Z,27.55
2019-05-13T15:34:05.879Z,27.28
2019-05-13T15:36:35.261Z,27.94
2019-05-13T15:39:06.285Z,26.92
2019-05-13T15:41:35.830Z,27.23
2019-05-13T15:44:05.210Z,26.34
2019-05-13T15:46:34.473Z,26.24
2019-05-13T15:49:03.776Z,26.30
2019-05-13T15:51:33.052Z,26.62
2019-05-13T15:54:02.787Z,26.81
2019-05-13T15:56:32.489Z,26.69
2019-05-13T15:59:03.482Z,26.56
2019-05-13T16:01:32.775Z,26.64
2019-05-13T16:04:02.882Z,26.55
2019-05-13T16:06:32.342Z,26.43
2019-05-13T16:09:02.768Z,26.00
2019-05-13T16:11:33.498Z,26.49
2019-05-13T16:14:03.867Z,26.71
2019-05-13T16:16:33.314Z,26.98
2019-05-13T16:19:02.591Z,26.87
2019-05-13T16:21:32.154Z,27.25
2019-05-13T16:24:02.647Z,27.07
2019-05-13T16:26:32.176Z,26.92
2019-05-13T16:29:02.294Z,26.80
2019-05-13T16:31:31.986Z,26.80
2019-05-13T16:34:01.827Z,26.71
2019-05-13T16:36:31.453Z,26.78
2019-05-13T16:39:05.754Z,26.76
2019-05-13T16:41:36.096Z,26.91
2019-05-13T16:44:05.738Z,26.91
2019-05-13T16:46:35.032Z,27.88
2019-05-13T16:49:04.404Z,27.12
2019-05-13T16:51:33.689Z,27.64
2019-05-13T16:54:02.952Z,28.33
2019-05-13T16:56:33.470Z,27.94
2019-05-13T16:59:02.956Z,28.12
2019-05-13T17:01:32.229Z,28.05
2019-05-13T17:04:01.994Z,28.67
2019-05-13T17:06:32.180Z,28.97
2019-05-13T17:09:01.985Z,29.33
2019-05-13T17:11:32.125Z,29.22
2019-05-13T17:14:02.338Z,28.87
2019-05-13T17:16:32.606Z,28.87
2019-05-13T17:19:01.901Z,28.94
2019-05-13T17:21:31.640Z,28.55
2019-05-13T17:24:01.677Z,28.59
2019-05-13T17:26:32.700Z,28.42
2019-05-13T17:29:02.162Z,28.54
2019-05-13T17:31:32.686Z,28.61
2019-05-13T17:34:11.847Z,28.45
2019-05-13T17:36:41.911Z,28.60
2019-05-13T17:39:12.588Z,28.92
2019-05-13T17:41:42.140Z,28.47
2019-05-13T17:44:11.823Z,28.23
2019-05-13T17:46:41.887Z,28.32
2019-05-13T17:49:11.975Z,28.38
2019-05-13T17:51:42.608Z,28.44
2019-05-13T17:54:12.121Z,28.59
2019-05-13T17:56:41.437Z,29.17
2019-05-13T17:59:11.618Z,29.56
2019-05-13T18:01:41.457Z,29.76
2019-05-13T18:04:11.828Z,29.86
2019-05-13T18:06:41.830Z,30.17
2019-05-13T18:09:12.313Z,30.40
2019-05-13T18:11:41.895Z,30.68
2019-05-13T18:14:11.623Z,30.95
2019-05-13T18:16:41.933Z,31.04
2019-05-13T18:19:12.106Z,30.79
2019-05-13T18:21:42.395Z,31.00
2019-05-13T18:24:12.155Z,30.95
2019-05-13T18:26:42.084Z,30.96
2019-05-13T18:29:12.460Z,31.23
2019-05-13T18:31:42.345Z,31.08
2019-05-13T18:34:12.383Z,31.26
2019-05-13T18:36:42.575Z,31.56
2019-05-13T18:39:12.550Z,31.76
2019-05-13T18:41:41.969Z,32.01
2019-05-13T18:44:12.306Z,32.19
2019-05-13T18:46:42.026Z,32.27
2019-05-13T18:49:12.044Z,32.83
2019-05-13T18:51:42.258Z,32.69
2019-05-13T18:54:12.186Z,32.83
2019-05-13T18:56:42.611Z,32.66
2019-05-13T18:59:12.666Z,32.53
2019-05-13T19:01:42.100Z,32.93
2019-05-13T19:04:11.660Z,33.36
2019-05-13T19:06:42.298Z,33.08
2019-05-13T19:09:11.912Z,33.09
2019-05-13T19:11:42.817Z,33.27
2019-05-13T19:14:12.709Z,33.46
2019-05-13T19:16:42.377Z,33.66
2019-05-13T19:19:15.711Z,33.83
2019-05-13T19:21:42.812Z,33.84
2019-05-13T19:24:13.404Z,34.05
2019-05-13T19:26:42.974Z,34.16
2019-05-13T19:29:13.255Z,34.20
2019-05-13T19:31:42.545Z,34.21
2019-05-13T19:34:12.949Z,34.54
2019-05-13T19:36:51.461Z,34.52
2019-05-13T19:39:16.249Z,34.53
2019-05-13T19:41:46.639Z,34.84
2019-05-13T19:44:15.934Z,35.02
2019-05-13T19:46:45.259Z,35.00
2019-05-13T19:49:28.649Z,35.18
2019-05-13T19:51:45.570Z,35.17
2019-05-13T19:54:14.857Z,35.55
2019-05-13T19:56:44.144Z,35.41
2019-05-13T19:59:13.675Z,35.47
2019-05-13T20:01:43.147Z,35.56
2019-05-13T20:04:12.673Z,36.10
2019-05-13T20:06:42.232Z,36.16
2019-05-13T20:09:11.858Z,36.03
2019-05-13T20:11:41.984Z,36.43
2019-05-13T20:14:12.365Z,36.94
2019-05-13T20:16:42.361Z,37.07
2019-05-13T20:19:11.955Z,36.89
2019-05-13T20:21:42.569Z,36.84
2019-05-13T20:24:12.672Z,37.03
2019-05-13T20:26:42.682Z,37.17
2019-05-13T20:29:12.478Z,37.24
2019-05-13T20:31:42.823Z,37.46
2019-05-13T20:34:12.122Z,37.77
2019-05-13T20:36:42.248Z,37.82
2019-05-13T20:39:12.051Z,37.99
2019-05-13T20:41:41.601Z,38.32
2019-05-13T20:44:10.986Z,38.35
2019-05-13T20:46:42.152Z,39.12
2019-05-13T20:49:12.269Z,38.78
2019-05-13T20:51:41.890Z,38.84
2019-05-13T20:54:11.561Z,39.29
2019-05-13T20:56:42.161Z,39.19
2019-05-13T20:59:12.401Z,39.31
2019-05-13T21:01:42.444Z,39.08
2019-05-13T21:04:12.499Z,39.35
2019-05-13T21:06:42.389Z,39.42
2019-05-13T21:09:16.802Z,39.72
2019-05-13T21:11:46.155Z,39.32
2019-05-13T21:14:15.933Z,39.71
2019-05-13T21:16:45.581Z,40.06
2019-05-13T21:19:15.039Z,40.35
2019-05-13T21:21:44.855Z,40.83
2019-05-13T21:24:14.180Z,40.60
2019-05-13T21:26:44.061Z,40.42
2019-05-13T21:29:13.395Z,41.05
2019-05-13T21:31:42.699Z,40.88
2019-05-13T21:34:12.436Z,42.38
2019-05-13T21:36:41.724Z,42.76
2019-05-13T21:39:12.407Z,42.77
2019-05-13T21:41:41.897Z,42.57
2019-05-13T21:44:11.976Z,42.38
2019-05-13T21:46:41.559Z,42.80
2019-05-13T21:49:12.166Z,43.43
2019-05-13T21:51:41.887Z,43.16
2019-05-13T21:54:11.766Z,43.10
2019-05-13T21:56:42.839Z,43.42
2019-05-13T21:59:12.221Z,44.36
2019-05-13T22:01:42.234Z,45.18
2019-05-13T22:04:12.424Z,44.62
2019-05-13T22:06:41.972Z,44.56
2019-05-13T22:09:12.460Z,44.90
2019-05-13T22:11:42.181Z,45.53
2019-05-13T22:14:11.599Z,46.82
2019-05-13T22:16:41.404Z,46.16
2019-05-13T22:19:12.214Z,46.25
2019-05-13T22:21:42.486Z,47.83
2019-05-13T22:24:11.906Z,47.34
2019-05-13T22:26:42.006Z,46.41
2019-05-13T22:29:11.601Z,47.62
2019-05-13T22:31:42.033Z,45.58
2019-05-13T22:34:12.121Z,44.48
2019-05-13T22:36:41.579Z,44.65
2019-05-13T22:39:11.533Z,44.81
2019-05-13T22:41:42.162Z,45.15
2019-05-13T22:44:11.938Z,45.46
2019-05-13T22:46:41.531Z,45.26
2019-05-13T22:49:11.629Z,46.93
2019-05-13T22:51:41.395Z,46.91
2019-05-13T22:54:11.974Z,46.86
2019-05-13T22:56:41.417Z,47.07
2019-05-13T22:59:12.274Z,47.96
2019-05-13T23:01:52.201Z,48.11
2019-05-13T23:04:22.065Z,48.29
2019-05-13T23:06:51.986Z,47.75
2019-05-13T23:09:21.619Z,48.14
2019-05-13T23:11:51.209Z,49.64
2019-05-13T23:14:22.030Z,51.25
2019-05-13T23:16:51.453Z,52.32
2019-05-13T23:19:21.680Z,53.24
2019-05-13T23:21:51.286Z,54.85
2019-05-13T23:24:21.895Z,55.65
2019-05-13T23:26:51.634Z,56.52
2019-05-13T23:29:21.513Z,57.08
2019-05-13T23:31:52.061Z,57.38
2019-05-13T23:34:22.323Z,57.47
2019-05-13T23:36:51.857Z,57.59
2019-05-13T23:39:21.755Z,56.89
2019-05-13T23:41:52.125Z,56.78
2019-05-13T23:44:27.157Z,57.70
2019-05-13T23:46:52.608Z,59.04
2019-05-13T23:49:22.978Z,58.86
2019-05-13T23:51:52.287Z,59.06
2019-05-13T23:54:21.553Z,59.14
2019-05-13T23:56:51.036Z,59.46
2019-05-13T23:59:21.978Z,58.84
